sensor_id;sensor_type;location;lat;lon;timestamp;P1;durP1;ratioP1;P2;durP2;ratioP2
10056;SDS011;5068;51.286;7.518;2022-07-26T00:00:05;2.20;;;0.50;;
10056;SDS011;5068;51.286;7.518;2022-07-26T00:01:42;0.93;;;0.38;;
10056;SDS011;5068;51.286;7.518;2022-07-26T00:03:16;1.73;;;0.50;;
10056;SDS011;5068;51.286;7.518;2022-07-26T00:04:49;2.65;;;0.43;;
10056;SDS011;5068;51.286;7.518;2022-07-26T00:06:23;5.97;;;0.45;;
10056;SDS011;5068;51.286;7.518;2022-07-26T00:07:56;1.55;;;0.35;;
10056;SDS011;5068;51.286;7.518;2022-07-26T00:09:41;1.15;;;0.40;;
10056;SDS011;5068;51.286;7.518;2022-07-26T00:11:19;1.45;;;0.50;;
10056;SDS011;5068;51.286;7.518;2022-07-26T00:12:53;1.25;;;0.45;;
10056;SDS011;5068;51.286;7.518;2022-07-26T00:14:27;2.35;;;0.60;;
10056;SDS011;5068;51.286;7.518;2022-07-26T00:16:01;2.35;;;0.50;;
10056;SDS011;5068;51.286;7.518;2022-07-26T00:17:37;2.30;;;0.50;;
10056;SDS011;5068;51.286;7.518;2022-07-26T00:19:11;0.75;;;0.32;;
10056;SDS011;5068;51.286;7.518;2022-07-26T00:20:44;1.80;;;0.50;;
10056;SDS011;5068;51.286;7.518;2022-07-26T00:22:19;1.80;;;0.55;;
10056;SDS011;5068;51.286;7.518;2022-07-26T00:24:07;2.72;;;0.45;;
10056;SDS011;5068;51.286;7.518;2022-07-26T00:25:41;2.30;;;0.40;;
10056;SDS011;5068;51.286;7.518;2022-07-26T00:27:14;3.67;;;0.43;;
10056;SDS011;5068;51.286;7.518;2022-07-26T00:28:48;2.83;;;0.70;;
10056;SDS011;5068;51.286;7.518;2022-07-26T00:30:21;2.15;;;0.52;;
10056;SDS011;5068;51.286;7.518;2022-07-26T00:31:56;1.27;;;0.43;;
10056;SDS011;5068;51.286;7.518;2022-07-26T00:33:29;1.25;;;0.43;;
10056;SDS011;5068;51.286;7.518;2022-07-26T00:35:03;2.38;;;0.50;;
10056;SDS011;5068;51.286;7.518;2022-07-26T00:36:37;2.65;;;0.70;;
10056;SDS011;5068;51.286;7.518;2022-07-26T00:38:12;3.00;;;0.68;;
10056;SDS011;5068;51.286;7.518;2022-07-26T00:39:45;1.92;;;0.50;;
10056;SDS011;5068;51.286;7.518;2022-07-26T00:41:19;2.97;;;0.70;;
10056;SDS011;5068;51.286;7.518;2022-07-26T00:42:52;2.63;;;0.60;;
10056;SDS011;5068;51.286;7.518;2022-07-26T00:44:34;2.03;;;0.50;;
10056;SDS011;5068;51.286;7.518;2022-07-26T00:46:09;1.30;;;0.50;;
10056;SDS011;5068;51.286;7.518;2022-07-26T00:47:43;1.27;;;0.63;;
10056;SDS011;5068;51.286;7.518;2022-07-26T00:49:18;1.65;;;0.50;;
10056;SDS011;5068;51.286;7.518;2022-07-26T00:50:52;3.60;;;0.65;;
10056;SDS011;5068;51.286;7.518;2022-07-26T00:52:26;1.83;;;0.50;;
10056;SDS011;5068;51.286;7.518;2022-07-26T00:53:59;3.75;;;0.63;;
10056;SDS011;5068;51.286;7.518;2022-07-26T00:55:35;1.50;;;0.50;;
10056;SDS011;5068;51.286;7.518;2022-07-26T00:57:08;2.60;;;0.40;;
10056;SDS011;5068;51.286;7.518;2022-07-26T00:58:42;1.48;;;0.57;;
10056;SDS011;5068;51.286;7.518;2022-07-26T01:00:17;2.47;;;0.77;;
10056;SDS011;5068;51.286;7.518;2022-07-26T01:02:05;1.77;;;0.73;;
10056;SDS011;5068;51.286;7.518;2022-07-26T01:03:49;1.42;;;0.32;;
10056;SDS011;5068;51.286;7.518;2022-07-26T01:05:30;1.40;;;0.50;;
10056;SDS011;5068;51.286;7.518;2022-07-26T01:07:09;2.72;;;0.73;;
10056;SDS011;5068;51.286;7.518;2022-07-26T01:08:47;0.95;;;0.50;;
10056;SDS011;5068;51.286;7.518;2022-07-26T01:10:23;3.28;;;0.70;;
10056;SDS011;5068;51.286;7.518;2022-07-26T01:11:59;1.83;;;0.70;;
10056;SDS011;5068;51.286;7.518;2022-07-26T01:13:36;1.75;;;0.50;;
10056;SDS011;5068;51.286;7.518;2022-07-26T01:15:20;1.20;;;0.60;;
10056;SDS011;5068;51.286;7.518;2022-07-26T01:16:56;1.92;;;0.52;;
10056;SDS011;5068;51.286;7.518;2022-07-26T01:18:32;1.48;;;0.70;;
10056;SDS011;5068;51.286;7.518;2022-07-26T01:20:11;2.10;;;0.60;;
10056;SDS011;5068;51.286;7.518;2022-07-26T01:21:47;2.40;;;0.60;;
10056;SDS011;5068;51.286;7.518;2022-07-26T01:23:21;3.10;;;0.73;;
10056;SDS011;5068;51.286;7.518;2022-07-26T01:24:54;1.17;;;0.60;;
10056;SDS011;5068;51.286;7.518;2022-07-26T01:26:28;1.98;;;0.60;;
10056;SDS011;5068;51.286;7.518;2022-07-26T01:28:02;3.47;;;0.60;;
10056;SDS011;5068;51.286;7.518;2022-07-26T01:29:36;1.95;;;0.60;;
10056;SDS011;5068;51.286;7.518;2022-07-26T01:31:09;2.55;;;0.43;;
10056;SDS011;5068;51.286;7.518;2022-07-26T01:32:42;1.52;;;0.63;;
10056;SDS011;5068;51.286;7.518;2022-07-26T01:34:16;2.25;;;0.93;;
10056;SDS011;5068;51.286;7.518;2022-07-26T01:35:50;3.13;;;0.60;;
10056;SDS011;5068;51.286;7.518;2022-07-26T01:37:24;2.20;;;0.80;;
10056;SDS011;5068;51.286;7.518;2022-07-26T01:38:57;1.27;;;0.52;;
10056;SDS011;5068;51.286;7.518;2022-07-26T01:40:31;2.70;;;0.70;;
10056;SDS011;5068;51.286;7.518;2022-07-26T01:42:04;2.63;;;0.80;;
10056;SDS011;5068;51.286;7.518;2022-07-26T01:43:38;2.72;;;0.70;;
10056;SDS011;5068;51.286;7.518;2022-07-26T01:45:12;2.17;;;0.70;;
10056;SDS011;5068;51.286;7.518;2022-07-26T01:46:45;1.40;;;0.60;;
10056;SDS011;5068;51.286;7.518;2022-07-26T01:48:19;2.05;;;0.75;;
10056;SDS011;5068;51.286;7.518;2022-07-26T01:49:52;2.05;;;0.50;;
10056;SDS011;5068;51.286;7.518;2022-07-26T01:51:26;2.65;;;0.80;;
10056;SDS011;5068;51.286;7.518;2022-07-26T01:53:00;2.22;;;0.73;;
10056;SDS011;5068;51.286;7.518;2022-07-26T01:54:36;3.08;;;0.88;;
10056;SDS011;5068;51.286;7.518;2022-07-26T01:56:10;1.83;;;0.60;;
10056;SDS011;5068;51.286;7.518;2022-07-26T01:57:43;3.97;;;0.88;;
10056;SDS011;5068;51.286;7.518;2022-07-26T01:59:17;4.32;;;0.70;;
10056;SDS011;5068;51.286;7.518;2022-07-26T02:00:51;1.50;;;0.55;;
10056;SDS011;5068;51.286;7.518;2022-07-26T02:02:25;1.55;;;0.70;;
10056;SDS011;5068;51.286;7.518;2022-07-26T02:04:00;2.90;;;0.73;;
10056;SDS011;5068;51.286;7.518;2022-07-26T02:05:34;3.25;;;0.68;;
10056;SDS011;5068;51.286;7.518;2022-07-26T02:07:10;2.42;;;0.52;;
10056;SDS011;5068;51.286;7.518;2022-07-26T02:08:46;1.30;;;0.60;;
10056;SDS011;5068;51.286;7.518;2022-07-26T02:10:19;2.00;;;0.60;;
10056;SDS011;5068;51.286;7.518;2022-07-26T02:11:52;3.38;;;0.80;;
10056;SDS011;5068;51.286;7.518;2022-07-26T02:13:25;2.60;;;0.95;;
10056;SDS011;5068;51.286;7.518;2022-07-26T02:14:59;4.07;;;1.27;;
10056;SDS011;5068;51.286;7.518;2022-07-26T02:16:33;2.60;;;0.75;;
10056;SDS011;5068;51.286;7.518;2022-07-26T02:18:07;1.73;;;0.75;;
10056;SDS011;5068;51.286;7.518;2022-07-26T02:19:41;4.25;;;1.05;;
10056;SDS011;5068;51.286;7.518;2022-07-26T02:21:15;2.20;;;0.90;;
10056;SDS011;5068;51.286;7.518;2022-07-26T02:22:48;4.18;;;0.90;;
10056;SDS011;5068;51.286;7.518;2022-07-26T02:24:23;2.47;;;0.85;;
10056;SDS011;5068;51.286;7.518;2022-07-26T02:25:59;3.08;;;0.95;;
10056;SDS011;5068;51.286;7.518;2022-07-26T02:27:33;6.68;;;1.23;;
10056;SDS011;5068;51.286;7.518;2022-07-26T02:29:07;6.55;;;0.93;;
10056;SDS011;5068;51.286;7.518;2022-07-26T02:30:40;4.88;;;1.05;;
10056;SDS011;5068;51.286;7.518;2022-07-26T02:32:14;1.60;;;0.75;;
10056;SDS011;5068;51.286;7.518;2022-07-26T02:33:48;2.42;;;0.80;;
10056;SDS011;5068;51.286;7.518;2022-07-26T02:35:21;2.35;;;0.98;;
10056;SDS011;5068;51.286;7.518;2022-07-26T02:36:55;4.10;;;0.88;;
10056;SDS011;5068;51.286;7.518;2022-07-26T02:38:29;2.80;;;0.90;;
10056;SDS011;5068;51.286;7.518;2022-07-26T02:40:04;3.33;;;0.98;;
10056;SDS011;5068;51.286;7.518;2022-07-26T02:41:39;1.92;;;0.70;;
10056;SDS011;5068;51.286;7.518;2022-07-26T02:43:12;1.98;;;0.70;;
10056;SDS011;5068;51.286;7.518;2022-07-26T02:44:46;2.10;;;0.88;;
10056;SDS011;5068;51.286;7.518;2022-07-26T02:46:19;6.93;;;1.02;;
10056;SDS011;5068;51.286;7.518;2022-07-26T02:47:53;4.47;;;1.02;;
10056;SDS011;5068;51.286;7.518;2022-07-26T02:49:27;2.50;;;0.68;;
10056;SDS011;5068;51.286;7.518;2022-07-26T02:51:01;2.50;;;1.00;;
10056;SDS011;5068;51.286;7.518;2022-07-26T02:52:35;2.85;;;1.10;;
10056;SDS011;5068;51.286;7.518;2022-07-26T02:54:08;1.75;;;1.00;;
10056;SDS011;5068;51.286;7.518;2022-07-26T02:55:44;2.22;;;0.80;;
10056;SDS011;5068;51.286;7.518;2022-07-26T02:57:17;1.70;;;0.93;;
10056;SDS011;5068;51.286;7.518;2022-07-26T02:58:51;2.72;;;1.10;;
10056;SDS011;5068;51.286;7.518;2022-07-26T03:00:25;3.28;;;1.00;;
10056;SDS011;5068;51.286;7.518;2022-07-26T03:01:59;4.45;;;1.00;;
10056;SDS011;5068;51.286;7.518;2022-07-26T03:03:32;2.08;;;0.88;;
10056;SDS011;5068;51.286;7.518;2022-07-26T03:05:07;1.63;;;0.70;;
10056;SDS011;5068;51.286;7.518;2022-07-26T03:06:42;3.03;;;1.10;;
10056;SDS011;5068;51.286;7.518;2022-07-26T03:08:15;2.63;;;1.20;;
10056;SDS011;5068;51.286;7.518;2022-07-26T03:09:49;3.28;;;1.00;;
10056;SDS011;5068;51.286;7.518;2022-07-26T03:11:22;1.42;;;0.85;;
10056;SDS011;5068;51.286;7.518;2022-07-26T03:12:56;2.85;;;0.93;;
10056;SDS011;5068;51.286;7.518;2022-07-26T03:14:30;3.92;;;0.90;;
10056;SDS011;5068;51.286;7.518;2022-07-26T03:16:03;8.20;;;1.13;;
10056;SDS011;5068;51.286;7.518;2022-07-26T03:17:39;3.13;;;1.20;;
10056;SDS011;5068;51.286;7.518;2022-07-26T03:19:12;2.63;;;1.25;;
10056;SDS011;5068;51.286;7.518;2022-07-26T03:20:46;2.60;;;0.70;;
10056;SDS011;5068;51.286;7.518;2022-07-26T03:22:18;4.57;;;1.27;;
10056;SDS011;5068;51.286;7.518;2022-07-26T03:23:52;1.77;;;0.90;;
10056;SDS011;5068;51.286;7.518;2022-07-26T03:25:25;2.17;;;0.90;;
10056;SDS011;5068;51.286;7.518;2022-07-26T03:27:00;3.35;;;0.90;;
10056;SDS011;5068;51.286;7.518;2022-07-26T03:28:33;2.35;;;0.90;;
10056;SDS011;5068;51.286;7.518;2022-07-26T03:30:08;2.63;;;1.10;;
10056;SDS011;5068;51.286;7.518;2022-07-26T03:31:43;2.95;;;1.10;;
10056;SDS011;5068;51.286;7.518;2022-07-26T03:33:16;2.35;;;1.00;;
10056;SDS011;5068;51.286;7.518;2022-07-26T03:34:50;1.70;;;1.02;;
10056;SDS011;5068;51.286;7.518;2022-07-26T03:36:23;1.80;;;0.88;;
10056;SDS011;5068;51.286;7.518;2022-07-26T03:37:57;2.10;;;1.00;;
10056;SDS011;5068;51.286;7.518;2022-07-26T03:39:30;0.85;;;0.63;;
10056;SDS011;5068;51.286;7.518;2022-07-26T03:41:04;2.40;;;1.15;;
10056;SDS011;5068;51.286;7.518;2022-07-26T03:42:39;2.35;;;1.13;;
10056;SDS011;5068;51.286;7.518;2022-07-26T03:44:12;3.17;;;1.00;;
10056;SDS011;5068;51.286;7.518;2022-07-26T03:45:46;2.22;;;0.93;;
10056;SDS011;5068;51.286;7.518;2022-07-26T03:47:20;2.05;;;1.10;;
10056;SDS011;5068;51.286;7.518;2022-07-26T03:48:53;3.22;;;1.20;;
10056;SDS011;5068;51.286;7.518;2022-07-26T03:50:26;6.03;;;1.33;;
10056;SDS011;5068;51.286;7.518;2022-07-26T03:52:00;2.00;;;0.93;;
10056;SDS011;5068;51.286;7.518;2022-07-26T03:53:33;2.35;;;0.88;;
10056;SDS011;5068;51.286;7.518;2022-07-26T03:55:07;1.83;;;1.00;;
10056;SDS011;5068;51.286;7.518;2022-07-26T03:56:58;1.15;;;0.90;;
10056;SDS011;5068;51.286;7.518;2022-07-26T03:58:33;2.83;;;1.00;;
10056;SDS011;5068;51.286;7.518;2022-07-26T04:00:08;1.90;;;0.88;;
10056;SDS011;5068;51.286;7.518;2022-07-26T04:01:44;2.40;;;1.05;;
10056;SDS011;5068;51.286;7.518;2022-07-26T04:03:19;1.98;;;0.73;;
10056;SDS011;5068;51.286;7.518;2022-07-26T04:04:52;4.22;;;1.35;;
10056;SDS011;5068;51.286;7.518;2022-07-26T04:06:26;2.97;;;1.13;;
10056;SDS011;5068;51.286;7.518;2022-07-26T04:08:00;3.30;;;1.23;;
10056;SDS011;5068;51.286;7.518;2022-07-26T04:09:34;2.25;;;1.00;;
10056;SDS011;5068;51.286;7.518;2022-07-26T04:11:08;4.10;;;1.20;;
10056;SDS011;5068;51.286;7.518;2022-07-26T04:12:40;1.70;;;1.00;;
10056;SDS011;5068;51.286;7.518;2022-07-26T04:14:15;1.20;;;0.75;;
10056;SDS011;5068;51.286;7.518;2022-07-26T04:15:49;1.67;;;0.90;;
10056;SDS011;5068;51.286;7.518;2022-07-26T04:17:22;2.08;;;1.00;;
10056;SDS011;5068;51.286;7.518;2022-07-26T04:18:55;4.15;;;1.13;;
10056;SDS011;5068;51.286;7.518;2022-07-26T04:20:28;1.52;;;1.10;;
10056;SDS011;5068;51.286;7.518;2022-07-26T04:22:01;2.88;;;1.20;;
10056;SDS011;5068;51.286;7.518;2022-07-26T04:23:34;3.10;;;1.35;;
10056;SDS011;5068;51.286;7.518;2022-07-26T04:25:08;2.40;;;1.08;;
10056;SDS011;5068;51.286;7.518;2022-07-26T04:26:42;2.45;;;0.93;;
10056;SDS011;5068;51.286;7.518;2022-07-26T04:28:16;1.35;;;0.95;;
10056;SDS011;5068;51.286;7.518;2022-07-26T04:29:52;3.03;;;1.00;;
10056;SDS011;5068;51.286;7.518;2022-07-26T04:31:25;1.35;;;0.90;;
10056;SDS011;5068;51.286;7.518;2022-07-26T04:33:07;2.67;;;1.05;;
10056;SDS011;5068;51.286;7.518;2022-07-26T04:34:40;4.28;;;0.90;;
10056;SDS011;5068;51.286;7.518;2022-07-26T04:36:13;1.13;;;1.00;;
10056;SDS011;5068;51.286;7.518;2022-07-26T04:37:47;3.03;;;1.15;;
10056;SDS011;5068;51.286;7.518;2022-07-26T04:39:21;3.05;;;1.20;;
10056;SDS011;5068;51.286;7.518;2022-07-26T04:40:54;2.80;;;1.00;;
10056;SDS011;5068;51.286;7.518;2022-07-26T04:42:28;3.47;;;1.20;;
10056;SDS011;5068;51.286;7.518;2022-07-26T04:44:01;2.25;;;1.02;;
10056;SDS011;5068;51.286;7.518;2022-07-26T04:45:35;3.03;;;1.10;;
10056;SDS011;5068;51.286;7.518;2022-07-26T04:47:08;3.42;;;1.20;;
10056;SDS011;5068;51.286;7.518;2022-07-26T04:48:41;1.80;;;0.80;;
10056;SDS011;5068;51.286;7.518;2022-07-26T04:50:15;2.78;;;1.20;;
10056;SDS011;5068;51.286;7.518;2022-07-26T04:51:48;7.43;;;1.38;;
10056;SDS011;5068;51.286;7.518;2022-07-26T04:53:27;4.40;;;1.00;;
10056;SDS011;5068;51.286;7.518;2022-07-26T04:55:01;1.95;;;1.10;;
10056;SDS011;5068;51.286;7.518;2022-07-26T04:56:35;3.47;;;1.00;;
10056;SDS011;5068;51.286;7.518;2022-07-26T04:58:09;2.95;;;0.93;;
10056;SDS011;5068;51.286;7.518;2022-07-26T04:59:42;2.00;;;0.90;;
10056;SDS011;5068;51.286;7.518;2022-07-26T05:01:30;2.60;;;1.08;;
10056;SDS011;5068;51.286;7.518;2022-07-26T05:03:03;3.63;;;1.10;;
10056;SDS011;5068;51.286;7.518;2022-07-26T05:04:37;3.47;;;0.88;;
10056;SDS011;5068;51.286;7.518;2022-07-26T05:06:11;2.03;;;0.90;;
10056;SDS011;5068;51.286;7.518;2022-07-26T05:07:45;2.13;;;0.95;;
10056;SDS011;5068;51.286;7.518;2022-07-26T05:09:21;2.70;;;1.33;;
10056;SDS011;5068;51.286;7.518;2022-07-26T05:10:54;3.03;;;1.30;;
10056;SDS011;5068;51.286;7.518;2022-07-26T05:12:28;2.58;;;1.42;;
10056;SDS011;5068;51.286;7.518;2022-07-26T05:14:01;3.25;;;1.15;;
10056;SDS011;5068;51.286;7.518;2022-07-26T05:15:35;0.90;;;0.80;;
10056;SDS011;5068;51.286;7.518;2022-07-26T05:17:10;2.50;;;1.10;;
10056;SDS011;5068;51.286;7.518;2022-07-26T05:18:48;1.35;;;0.85;;
10056;SDS011;5068;51.286;7.518;2022-07-26T05:20:21;2.35;;;1.30;;
10056;SDS011;5068;51.286;7.518;2022-07-26T05:21:55;4.72;;;1.50;;
10056;SDS011;5068;51.286;7.518;2022-07-26T05:23:29;4.88;;;1.65;;
10056;SDS011;5068;51.286;7.518;2022-07-26T05:25:04;2.80;;;1.50;;
10056;SDS011;5068;51.286;7.518;2022-07-26T05:26:39;3.13;;;1.42;;
10056;SDS011;5068;51.286;7.518;2022-07-26T05:28:13;2.13;;;1.05;;
10056;SDS011;5068;51.286;7.518;2022-07-26T05:29:46;2.45;;;1.63;;
10056;SDS011;5068;51.286;7.518;2022-07-26T05:31:20;4.65;;;1.30;;
10056;SDS011;5068;51.286;7.518;2022-07-26T05:32:54;2.50;;;1.52;;
10056;SDS011;5068;51.286;7.518;2022-07-26T05:34:28;2.45;;;1.40;;
10056;SDS011;5068;51.286;7.518;2022-07-26T05:36:02;4.65;;;1.20;;
10056;SDS011;5068;51.286;7.518;2022-07-26T05:37:36;3.78;;;1.45;;
10056;SDS011;5068;51.286;7.518;2022-07-26T05:39:09;2.13;;;1.10;;
10056;SDS011;5068;51.286;7.518;2022-07-26T05:40:46;2.50;;;1.20;;
10056;SDS011;5068;51.286;7.518;2022-07-26T05:42:21;2.97;;;1.38;;
10056;SDS011;5068;51.286;7.518;2022-07-26T05:43:56;5.25;;;1.60;;
10056;SDS011;5068;51.286;7.518;2022-07-26T05:45:29;3.25;;;1.25;;
10056;SDS011;5068;51.286;7.518;2022-07-26T05:47:03;4.55;;;1.40;;
10056;SDS011;5068;51.286;7.518;2022-07-26T05:48:40;2.88;;;1.58;;
10056;SDS011;5068;51.286;7.518;2022-07-26T05:50:14;2.83;;;1.58;;
10056;SDS011;5068;51.286;7.518;2022-07-26T05:51:47;4.13;;;1.67;;
10056;SDS011;5068;51.286;7.518;2022-07-26T05:53:21;4.93;;;2.00;;
10056;SDS011;5068;51.286;7.518;2022-07-26T05:54:55;4.30;;;1.50;;
10056;SDS011;5068;51.286;7.518;2022-07-26T05:56:28;2.25;;;1.75;;
10056;SDS011;5068;51.286;7.518;2022-07-26T05:58:02;4.45;;;1.95;;
10056;SDS011;5068;51.286;7.518;2022-07-26T05:59:35;3.83;;;1.95;;
10056;SDS011;5068;51.286;7.518;2022-07-26T06:01:08;5.80;;;2.70;;
10056;SDS011;5068;51.286;7.518;2022-07-26T06:02:42;3.50;;;2.22;;
10056;SDS011;5068;51.286;7.518;2022-07-26T06:04:17;7.65;;;2.88;;
10056;SDS011;5068;51.286;7.518;2022-07-26T06:05:50;8.77;;;3.00;;
10056;SDS011;5068;51.286;7.518;2022-07-26T06:07:27;8.48;;;3.40;;
10056;SDS011;5068;51.286;7.518;2022-07-26T06:09:00;6.88;;;3.10;;
10056;SDS011;5068;51.286;7.518;2022-07-26T06:10:34;6.10;;;3.30;;
10056;SDS011;5068;51.286;7.518;2022-07-26T06:12:07;5.75;;;3.60;;
10056;SDS011;5068;51.286;7.518;2022-07-26T06:13:41;6.78;;;3.78;;
10056;SDS011;5068;51.286;7.518;2022-07-26T06:15:14;5.75;;;3.45;;
10056;SDS011;5068;51.286;7.518;2022-07-26T06:16:48;8.02;;;4.10;;
10056;SDS011;5068;51.286;7.518;2022-07-26T06:18:21;4.75;;;3.70;;
10056;SDS011;5068;51.286;7.518;2022-07-26T06:19:56;5.82;;;3.67;;
10056;SDS011;5068;51.286;7.518;2022-07-26T06:21:30;7.13;;;4.35;;
10056;SDS011;5068;51.286;7.518;2022-07-26T06:23:04;9.52;;;4.85;;
10056;SDS011;5068;51.286;7.518;2022-07-26T06:24:38;8.52;;;4.50;;
10056;SDS011;5068;51.286;7.518;2022-07-26T06:26:11;5.88;;;4.63;;
10056;SDS011;5068;51.286;7.518;2022-07-26T06:27:45;8.10;;;4.40;;
10056;SDS011;5068;51.286;7.518;2022-07-26T06:29:18;8.35;;;4.57;;
10056;SDS011;5068;51.286;7.518;2022-07-26T06:30:52;10.90;;;4.85;;
10056;SDS011;5068;51.286;7.518;2022-07-26T06:32:26;7.63;;;4.78;;
10056;SDS011;5068;51.286;7.518;2022-07-26T06:33:59;8.10;;;4.78;;
10056;SDS011;5068;51.286;7.518;2022-07-26T06:35:34;8.23;;;4.60;;
10056;SDS011;5068;51.286;7.518;2022-07-26T06:37:09;8.32;;;5.68;;
10056;SDS011;5068;51.286;7.518;2022-07-26T06:38:43;6.32;;;5.32;;
10056;SDS011;5068;51.286;7.518;2022-07-26T06:40:19;10.77;;;5.90;;
10056;SDS011;5068;51.286;7.518;2022-07-26T06:41:52;9.68;;;5.63;;
10056;SDS011;5068;51.286;7.518;2022-07-26T06:43:26;6.95;;;6.07;;
10056;SDS011;5068;51.286;7.518;2022-07-26T06:44:59;10.23;;;6.15;;
10056;SDS011;5068;51.286;7.518;2022-07-26T06:46:33;9.60;;;7.00;;
10056;SDS011;5068;51.286;7.518;2022-07-26T06:48:07;9.30;;;6.18;;
10056;SDS011;5068;51.286;7.518;2022-07-26T06:49:40;8.40;;;6.05;;
10056;SDS011;5068;51.286;7.518;2022-07-26T06:51:16;9.00;;;5.65;;
10056;SDS011;5068;51.286;7.518;2022-07-26T06:52:49;10.30;;;6.50;;
10056;SDS011;5068;51.286;7.518;2022-07-26T06:54:23;9.68;;;6.13;;
10056;SDS011;5068;51.286;7.518;2022-07-26T06:55:56;9.88;;;6.28;;
10056;SDS011;5068;51.286;7.518;2022-07-26T06:57:30;8.98;;;6.82;;
10056;SDS011;5068;51.286;7.518;2022-07-26T06:59:15;10.32;;;6.65;;
10056;SDS011;5068;51.286;7.518;2022-07-26T07:00:48;10.50;;;6.93;;
10056;SDS011;5068;51.286;7.518;2022-07-26T07:02:22;9.70;;;6.90;;
10056;SDS011;5068;51.286;7.518;2022-07-26T07:03:56;7.78;;;6.82;;
10056;SDS011;5068;51.286;7.518;2022-07-26T07:05:30;8.25;;;6.22;;
10056;SDS011;5068;51.286;7.518;2022-07-26T07:07:05;7.43;;;6.40;;
10056;SDS011;5068;51.286;7.518;2022-07-26T07:08:39;7.68;;;6.15;;
10056;SDS011;5068;51.286;7.518;2022-07-26T07:10:13;7.60;;;6.00;;
10056;SDS011;5068;51.286;7.518;2022-07-26T07:11:46;8.18;;;6.10;;
10056;SDS011;5068;51.286;7.518;2022-07-26T07:13:26;7.90;;;6.40;;
10056;SDS011;5068;51.286;7.518;2022-07-26T07:15:00;8.23;;;6.35;;
10056;SDS011;5068;51.286;7.518;2022-07-26T07:16:34;8.68;;;7.32;;
10056;SDS011;5068;51.286;7.518;2022-07-26T07:18:07;9.77;;;7.07;;
10056;SDS011;5068;51.286;7.518;2022-07-26T07:19:41;10.85;;;6.75;;
10056;SDS011;5068;51.286;7.518;2022-07-26T07:21:14;12.25;;;7.35;;
10056;SDS011;5068;51.286;7.518;2022-07-26T07:22:49;10.30;;;7.40;;
10056;SDS011;5068;51.286;7.518;2022-07-26T07:24:23;9.68;;;7.35;;
10056;SDS011;5068;51.286;7.518;2022-07-26T07:25:57;9.27;;;6.97;;
10056;SDS011;5068;51.286;7.518;2022-07-26T07:27:31;10.15;;;7.50;;
10056;SDS011;5068;51.286;7.518;2022-07-26T07:29:04;9.55;;;6.95;;
10056;SDS011;5068;51.286;7.518;2022-07-26T07:30:37;9.95;;;7.22;;
10056;SDS011;5068;51.286;7.518;2022-07-26T07:32:11;11.93;;;8.00;;
10056;SDS011;5068;51.286;7.518;2022-07-26T07:33:50;10.50;;;7.53;;
10056;SDS011;5068;51.286;7.518;2022-07-26T07:35:24;8.20;;;7.15;;
10056;SDS011;5068;51.286;7.518;2022-07-26T07:37:03;8.52;;;7.70;;
10056;SDS011;5068;51.286;7.518;2022-07-26T07:38:39;14.35;;;8.30;;
10056;SDS011;5068;51.286;7.518;2022-07-26T07:40:13;10.05;;;7.15;;
10056;SDS011;5068;51.286;7.518;2022-07-26T07:41:47;13.88;;;7.47;;
10056;SDS011;5068;51.286;7.518;2022-07-26T07:43:21;13.07;;;7.35;;
10056;SDS011;5068;51.286;7.518;2022-07-26T07:44:57;12.98;;;8.23;;
10056;SDS011;5068;51.286;7.518;2022-07-26T07:46:31;11.90;;;7.32;;
10056;SDS011;5068;51.286;7.518;2022-07-26T07:48:04;10.65;;;8.07;;
10056;SDS011;5068;51.286;7.518;2022-07-26T07:49:39;12.55;;;7.75;;
10056;SDS011;5068;51.286;7.518;2022-07-26T07:51:12;8.38;;;7.50;;
10056;SDS011;5068;51.286;7.518;2022-07-26T07:52:48;10.25;;;8.00;;
10056;SDS011;5068;51.286;7.518;2022-07-26T07:54:22;9.93;;;7.95;;
10056;SDS011;5068;51.286;7.518;2022-07-26T07:55:57;12.98;;;7.90;;
10056;SDS011;5068;51.286;7.518;2022-07-26T07:57:31;15.38;;;8.43;;
10056;SDS011;5068;51.286;7.518;2022-07-26T07:59:06;11.45;;;7.90;;
10056;SDS011;5068;51.286;7.518;2022-07-26T08:00:40;10.25;;;7.75;;
10056;SDS011;5068;51.286;7.518;2022-07-26T08:02:14;13.38;;;8.18;;
10056;SDS011;5068;51.286;7.518;2022-07-26T08:03:48;10.07;;;7.13;;
10056;SDS011;5068;51.286;7.518;2022-07-26T08:05:22;10.80;;;7.75;;
10056;SDS011;5068;51.286;7.518;2022-07-26T08:06:56;11.25;;;7.93;;
10056;SDS011;5068;51.286;7.518;2022-07-26T08:08:29;12.18;;;8.45;;
10056;SDS011;5068;51.286;7.518;2022-07-26T08:10:06;9.25;;;8.15;;
10056;SDS011;5068;51.286;7.518;2022-07-26T08:11:40;8.85;;;7.50;;
10056;SDS011;5068;51.286;7.518;2022-07-26T08:13:14;10.85;;;7.85;;
10056;SDS011;5068;51.286;7.518;2022-07-26T08:14:51;8.85;;;7.50;;
10056;SDS011;5068;51.286;7.518;2022-07-26T08:16:25;11.13;;;7.78;;
10056;SDS011;5068;51.286;7.518;2022-07-26T08:17:59;10.98;;;7.20;;
10056;SDS011;5068;51.286;7.518;2022-07-26T08:19:34;9.00;;;6.90;;
10056;SDS011;5068;51.286;7.518;2022-07-26T08:21:12;10.75;;;7.25;;
10056;SDS011;5068;51.286;7.518;2022-07-26T08:22:46;9.07;;;7.07;;
10056;SDS011;5068;51.286;7.518;2022-07-26T08:24:20;7.50;;;6.30;;
10056;SDS011;5068;51.286;7.518;2022-07-26T08:25:55;9.13;;;5.97;;
10056;SDS011;5068;51.286;7.518;2022-07-26T08:27:35;7.22;;;5.75;;
10056;SDS011;5068;51.286;7.518;2022-07-26T08:29:12;10.65;;;5.75;;
10056;SDS011;5068;51.286;7.518;2022-07-26T08:30:46;7.68;;;5.43;;
10056;SDS011;5068;51.286;7.518;2022-07-26T08:32:20;7.18;;;6.25;;
10056;SDS011;5068;51.286;7.518;2022-07-26T08:33:54;8.25;;;5.60;;
10056;SDS011;5068;51.286;7.518;2022-07-26T08:35:28;9.40;;;6.25;;
10056;SDS011;5068;51.286;7.518;2022-07-26T08:37:02;10.63;;;5.88;;
10056;SDS011;5068;51.286;7.518;2022-07-26T08:38:50;7.97;;;6.15;;
10056;SDS011;5068;51.286;7.518;2022-07-26T08:40:24;7.88;;;5.75;;
10056;SDS011;5068;51.286;7.518;2022-07-26T08:42:00;7.13;;;5.03;;
10056;SDS011;5068;51.286;7.518;2022-07-26T08:43:34;10.52;;;5.00;;
10056;SDS011;5068;51.286;7.518;2022-07-26T08:45:24;6.35;;;4.43;;
10056;SDS011;5068;51.286;7.518;2022-07-26T08:47:03;5.15;;;3.38;;
10056;SDS011;5068;51.286;7.518;2022-07-26T08:48:38;5.47;;;4.07;;
10056;SDS011;5068;51.286;7.518;2022-07-26T08:50:12;5.95;;;3.65;;
10056;SDS011;5068;51.286;7.518;2022-07-26T08:51:46;6.80;;;3.72;;
10056;SDS011;5068;51.286;7.518;2022-07-26T08:53:19;6.15;;;3.78;;
10056;SDS011;5068;51.286;7.518;2022-07-26T08:54:54;7.03;;;3.90;;
10056;SDS011;5068;51.286;7.518;2022-07-26T08:56:27;6.00;;;3.47;;
10056;SDS011;5068;51.286;7.518;2022-07-26T08:58:02;6.60;;;3.15;;
10056;SDS011;5068;51.286;7.518;2022-07-26T08:59:36;6.57;;;3.95;;
10056;SDS011;5068;51.286;7.518;2022-07-26T09:01:10;6.68;;;3.45;;
10056;SDS011;5068;51.286;7.518;2022-07-26T09:02:45;6.57;;;3.55;;
10056;SDS011;5068;51.286;7.518;2022-07-26T09:04:21;4.60;;;3.00;;
10056;SDS011;5068;51.286;7.518;2022-07-26T09:06:11;4.43;;;2.80;;
10056;SDS011;5068;51.286;7.518;2022-07-26T09:07:47;6.40;;;2.97;;
10056;SDS011;5068;51.286;7.518;2022-07-26T09:09:20;5.22;;;3.10;;
10056;SDS011;5068;51.286;7.518;2022-07-26T09:10:54;5.38;;;3.35;;
10056;SDS011;5068;51.286;7.518;2022-07-26T09:12:28;4.50;;;2.60;;
10056;SDS011;5068;51.286;7.518;2022-07-26T09:14:05;4.40;;;3.10;;
10056;SDS011;5068;51.286;7.518;2022-07-26T09:15:38;5.15;;;2.70;;
10056;SDS011;5068;51.286;7.518;2022-07-26T09:17:13;7.90;;;3.10;;
10056;SDS011;5068;51.286;7.518;2022-07-26T09:18:49;4.68;;;2.17;;
10056;SDS011;5068;51.286;7.518;2022-07-26T09:20:24;6.13;;;2.60;;
10056;SDS011;5068;51.286;7.518;2022-07-26T09:22:04;3.47;;;2.10;;
10056;SDS011;5068;51.286;7.518;2022-07-26T09:23:41;4.68;;;1.95;;
10056;SDS011;5068;51.286;7.518;2022-07-26T09:25:21;3.20;;;1.85;;
10056;SDS011;5068;51.286;7.518;2022-07-26T09:26:56;3.20;;;2.10;;
10056;SDS011;5068;51.286;7.518;2022-07-26T09:28:31;3.55;;;2.33;;
10056;SDS011;5068;51.286;7.518;2022-07-26T09:30:07;4.45;;;2.35;;
10056;SDS011;5068;51.286;7.518;2022-07-26T09:31:42;3.53;;;2.35;;
10056;SDS011;5068;51.286;7.518;2022-07-26T09:33:16;4.43;;;2.10;;
10056;SDS011;5068;51.286;7.518;2022-07-26T09:34:50;4.55;;;1.95;;
10056;SDS011;5068;51.286;7.518;2022-07-26T09:36:29;5.05;;;1.60;;
10056;SDS011;5068;51.286;7.518;2022-07-26T09:38:10;2.38;;;1.30;;